Time;durP1;ratioP1;P1;durP2;ratioP2;P2;SDS_P1;SDS_P2;PMS_P1;PMS_P2;Temp;Humidity;BMP_temperature;BMP_pressure;BME280_temperature;BME280_humidity;BME280_pressure;Samples;Min_cycle;Max_cycle;Signal;HPM_P1;HPM_P2
2023/12/17 00:01:47;;;;;;;4.63;4.10;;;;;;;;;;6284882;22;20401;-88
2023/12/17 00:04:13;;;;;;;4.37;3.97;;;;;;;;;;6286647;22;20385;-88
2023/12/17 00:06:41;;;;;;;17.33;7.87;;;;;;;;;;6283199;22;20380;-89
2023/12/17 00:09:08;;;;;;;5.23;3.43;;;;;;;;;;6286746;22;20451;-89
2023/12/17 00:11:39;;;;;;;5.03;3.60;;;;;;;;;;6260352;22;20376;-89
2023/12/17 00:14:05;;;;;;;5.10;4.60;;;;;;;;;;6264380;22;20398;-89
2023/12/17 00:16:31;;;;;;;8.20;5.00;;;;;;;;;;6259948;22;20965;-89
2023/12/17 00:18:57;;;;;;;8.50;4.70;;;;;;;;;;6263285;22;20404;-89
2023/12/17 00:21:23;;;;;;;12.33;4.50;;;;;;;;;;6260497;22;20373;-90
2023/12/17 00:23:49;;;;;;;7.67;3.63;;;;;;;;;;6264481;22;20369;-89
2023/12/17 00:26:15;;;;;;;6.20;5.17;;;;;;;;;;6261299;22;20392;-89
2023/12/17 00:28:41;;;;;;;4.63;4.00;;;;;;;;;;6259736;22;20380;-89
2023/12/17 00:31:07;;;;;;;6.30;4.13;;;;;;;;;;6260522;22;20397;-89
2023/12/17 00:33:33;;;;;;;4.20;3.77;;;;;;;;;;6284797;22;20449;-91
2023/12/17 00:35:59;;;;;;;6.57;5.07;;;;;;;;;;6263023;22;20415;-89
2023/12/17 00:38:25;;;;;;;8.10;5.20;;;;;;;;;;6260288;22;20447;-90
2023/12/17 00:40:51;;;;;;;5.90;3.93;;;;;;;;;;6261426;22;20373;-89
2023/12/17 00:43:17;;;;;;;4.20;3.23;;;;;;;;;;6287608;22;20377;-90
2023/12/17 00:45:43;;;;;;;6.73;4.20;;;;;;;;;;6289491;22;20376;-90
2023/12/17 00:48:12;;;;;;;6.30;4.17;;;;;;;;;;6288176;22;20428;-90
2023/12/17 00:50:38;;;;;;;5.67;4.10;;;;;;;;;;6288733;22;20375;-91
2023/12/17 00:53:04;;;;;;;4.87;3.67;;;;;;;;;;6286740;22;20381;-87
2023/12/17 00:55:31;;;;;;;8.70;4.93;;;;;;;;;;6291770;22;20412;-88
2023/12/17 00:57:56;;;;;;;8.63;4.33;;;;;;;;;;6284295;22;20381;-89
2023/12/17 01:00:25;;;;;;;5.80;4.30;;;;;;;;;;6287148;22;20387;-91
2023/12/17 01:02:51;;;;;;;5.17;3.73;;;;;;;;;;6287127;22;20387;-90
2023/12/17 01:05:19;;;;;;;4.70;4.10;;;;;;;;;;6313711;22;20368;-88
2023/12/17 01:07:45;;;;;;;5.23;3.33;;;;;;;;;;6287846;22;20356;-89
2023/12/17 01:10:11;;;;;;;6.10;4.50;;;;;;;;;;6314662;22;20369;-90
2023/12/17 01:12:37;;;;;;;4.60;4.00;;;;;;;;;;6314156;22;20418;-91
2023/12/17 01:15:03;;;;;;;14.40;3.60;;;;;;;;;;6288224;22;20466;-90
2023/12/17 01:17:31;;;;;;;5.50;4.20;;;;;;;;;;6282434;22;20398;-90
2023/12/17 01:19:57;;;;;;;4.87;2.90;;;;;;;;;;6255685;22;20405;-89
2023/12/17 01:22:23;;;;;;;6.07;3.90;;;;;;;;;;6230570;22;20389;-90
2023/12/17 01:24:52;;;;;;;6.03;4.57;;;;;;;;;;6234231;22;20412;-88
2023/12/17 01:27:18;;;;;;;4.80;3.47;;;;;;;;;;6231077;22;20374;-89
2023/12/17 01:29:44;;;;;;;10.33;4.10;;;;;;;;;;6229555;22;20464;-90
2023/12/17 01:32:10;;;;;;;14.40;4.67;;;;;;;;;;6231967;22;20394;-89
2023/12/17 01:34:36;;;;;;;4.80;4.13;;;;;;;;;;6227986;22;20374;-89
2023/12/17 01:37:02;;;;;;;8.77;4.40;;;;;;;;;;6231235;22;20405;-91
2023/12/17 01:39:28;;;;;;;5.80;4.30;;;;;;;;;;6228523;22;20386;-88
2023/12/17 01:41:54;;;;;;;4.97;4.50;;;;;;;;;;6230078;22;20415;-91
2023/12/17 01:44:20;;;;;;;6.57;4.37;;;;;;;;;;6253371;22;20369;-88
2023/12/17 01:46:46;;;;;;;4.20;3.53;;;;;;;;;;6230785;22;20385;-91
2023/12/17 01:49:12;;;;;;;4.13;3.33;;;;;;;;;;6274246;22;20376;-90
2023/12/17 01:51:38;;;;;;;5.73;3.90;;;;;;;;;;6287823;22;20748;-88
2023/12/17 01:54:05;;;;;;;7.20;3.40;;;;;;;;;;6286294;22;20372;-89
2023/12/17 01:56:31;;;;;;;4.77;2.90;;;;;;;;;;6318103;22;20446;-90
2023/12/17 01:58:57;;;;;;;5.77;3.57;;;;;;;;;;6286666;22;20372;-89
2023/12/17 02:01:23;;;;;;;5.40;4.40;;;;;;;;;;6314174;22;20387;-90
2023/12/17 02:03:49;;;;;;;5.30;3.93;;;;;;;;;;6287728;22;20419;-91
2023/12/17 02:06:18;;;;;;;4.13;3.70;;;;;;;;;;6285096;22;20384;-89
2023/12/17 02:08:44;;;;;;;5.13;3.87;;;;;;;;;;6286980;22;20457;-89
2023/12/17 02:11:10;;;;;;;7.03;4.40;;;;;;;;;;6284822;22;20380;-89
2023/12/17 02:13:38;;;;;;;4.93;4.33;;;;;;;;;;6286517;22;20371;-89
2023/12/17 02:16:04;;;;;;;9.27;6.00;;;;;;;;;;6284201;22;20526;-89
2023/12/17 02:18:30;;;;;;;8.27;4.80;;;;;;;;;;6286863;22;20391;-88
2023/12/17 02:20:57;;;;;;;7.23;6.27;;;;;;;;;;6286096;22;20372;-89
2023/12/17 02:23:23;;;;;;;6.50;4.73;;;;;;;;;;6286416;22;20388;-91
2023/12/17 02:25:49;;;;;;;6.17;4.00;;;;;;;;;;6285534;22;20376;-91
2023/12/17 02:28:15;;;;;;;9.20;5.17;;;;;;;;;;6289805;22;20381;-89
2023/12/17 02:30:41;;;;;;;6.47;4.20;;;;;;;;;;6284032;22;20430;-87
2023/12/17 02:33:07;;;;;;;7.63;3.97;;;;;;;;;;6314577;22;20387;-91
2023/12/17 02:35:32;;;;;;;5.20;3.40;;;;;;;;;;6286588;22;21143;-92
2023/12/17 02:37:58;;;;;;;6.17;3.83;;;;;;;;;;6289088;22;20427;-92
2023/12/17 02:40:27;;;;;;;6.70;4.50;;;;;;;;;;6286545;22;20464;-90
2023/12/17 02:42:53;;;;;;;9.13;5.50;;;;;;;;;;6289421;22;20375;-91
2023/12/17 02:45:19;;;;;;;5.40;4.47;;;;;;;;;;6286734;22;20376;-92
2023/12/17 02:47:45;;;;;;;7.73;5.37;;;;;;;;;;6288020;22;20381;-87
2023/12/17 02:50:14;;;;;;;10.70;6.33;;;;;;;;;;6312464;22;20369;-90
2023/12/17 02:52:40;;;;;;;9.93;5.30;;;;;;;;;;6286581;22;20372;-90
2023/12/17 02:55:10;;;;;;;8.70;5.60;;;;;;;;;;6287286;22;20372;-90
2023/12/17 02:57:37;;;;;;;10.73;6.40;;;;;;;;;;6290855;22;20381;-89
2023/12/17 03:00:03;;;;;;;16.20;5.67;;;;;;;;;;6337451;22;20380;-90
2023/12/17 03:02:29;;;;;;;8.43;5.37;;;;;;;;;;6286752;22;20359;-90
2023/12/17 03:04:55;;;;;;;4.90;3.73;;;;;;;;;;6313975;22;20677;-90
2023/12/17 03:07:21;;;;;;;4.57;3.33;;;;;;;;;;6285723;22;20463;-90
2023/12/17 03:09:49;;;;;;;7.00;3.50;;;;;;;;;;6286377;22;20392;-89
2023/12/17 03:12:15;;;;;;;5.30;4.20;;;;;;;;;;6284853;22;20498;-89
2023/12/17 03:14:41;;;;;;;6.50;4.67;;;;;;;;;;6311704;22;20388;-90
2023/12/17 03:17:07;;;;;;;13.73;4.00;;;;;;;;;;6284675;22;20458;-89
2023/12/17 03:19:33;;;;;;;3.77;3.20;;;;;;;;;;6286952;22;20377;-89
2023/12/17 03:21:59;;;;;;;4.13;3.30;;;;;;;;;;6283479;22;20406;-88
2023/12/17 03:24:25;;;;;;;5.73;3.97;;;;;;;;;;6287371;22;20381;-89
2023/12/17 03:26:51;;;;;;;6.33;4.07;;;;;;;;;;6310948;22;20677;-89
2023/12/17 03:29:17;;;;;;;7.23;4.23;;;;;;;;;;6290309;22;20383;-90
2023/12/17 03:31:43;;;;;;;5.67;3.63;;;;;;;;;;6285465;22;20392;-90
2023/12/17 03:34:09;;;;;;;7.03;4.10;;;;;;;;;;6312116;22;20365;-88
2023/12/17 03:36:35;;;;;;;6.00;4.60;;;;;;;;;;6312883;22;20415;-91
2023/12/17 03:39:02;;;;;;;18.33;4.30;;;;;;;;;;6311257;22;20392;-89
2023/12/17 03:41:28;;;;;;;4.30;3.67;;;;;;;;;;6289377;22;20463;-90
2023/12/17 03:43:55;;;;;;;5.47;4.97;;;;;;;;;;6286800;22;20372;-89
2023/12/17 03:46:21;;;;;;;7.63;6.43;;;;;;;;;;6286972;22;20387;-90
2023/12/17 03:48:49;;;;;;;6.00;5.37;;;;;;;;;;6285558;22;20383;-90
2023/12/17 03:51:15;;;;;;;6.53;5.73;;;;;;;;;;6289935;22;20353;-90
2023/12/17 03:53:41;;;;;;;8.20;4.37;;;;;;;;;;6286879;22;20388;-90
2023/12/17 03:56:10;;;;;;;7.87;3.50;;;;;;;;;;6287150;22;20423;-90
2023/12/17 03:58:37;;;;;;;7.17;4.87;;;;;;;;;;6286709;22;20391;-89
2023/12/17 04:01:03;;;;;;;8.50;4.53;;;;;;;;;;6317663;22;20365;-90
2023/12/17 04:03:29;;;;;;;5.53;4.60;;;;;;;;;;6287170;22;20361;-90
2023/12/17 04:05:56;;;;;;;5.43;4.40;;;;;;;;;;6288585;22;20710;-90
2023/12/17 04:08:22;;;;;;;9.43;5.20;;;;;;;;;;6286401;22;20899;-90
2023/12/17 04:10:48;;;;;;;7.30;5.00;;;;;;;;;;6285924;22;20372;-90
2023/12/17 04:13:14;;;;;;;7.77;4.37;;;;;;;;;;6285816;22;20379;-91
2023/12/17 04:15:40;;;;;;;4.77;3.40;;;;;;;;;;6287464;22;20434;-89
2023/12/17 04:18:06;;;;;;;4.97;4.37;;;;;;;;;;6284862;22;20384;-90
2023/12/17 04:20:32;;;;;;;6.53;5.37;;;;;;;;;;6312454;22;20369;-91
2023/12/17 04:22:58;;;;;;;9.80;5.40;;;;;;;;;;6287660;22;20449;-89
2023/12/17 04:25:25;;;;;;;5.37;3.83;;;;;;;;;;6313613;22;20451;-89
2023/12/17 04:27:53;;;;;;;5.03;4.53;;;;;;;;;;6287258;22;20384;-89
2023/12/17 04:30:21;;;;;;;7.23;4.90;;;;;;;;;;6288881;22;20480;-87
2023/12/17 04:32:48;;;;;;;7.57;5.17;;;;;;;;;;6313927;22;20459;-87
2023/12/17 04:35:14;;;;;;;10.27;5.33;;;;;;;;;;6286678;22;20376;-89
2023/12/17 04:37:40;;;;;;;10.33;5.97;;;;;;;;;;6313634;22;20795;-88
2023/12/17 04:40:06;;;;;;;4.90;3.93;;;;;;;;;;6284311;22;20373;-87
2023/12/17 04:42:32;;;;;;;8.20;4.20;;;;;;;;;;6288176;22;20392;-90
2023/12/17 04:44:58;;;;;;;5.67;4.50;;;;;;;;;;6285988;22;20407;-90
2023/12/17 04:47:24;;;;;;;5.83;5.00;;;;;;;;;;6313277;22;20368;-90
2023/12/17 04:49:50;;;;;;;5.13;3.97;;;;;;;;;;6309770;22;20368;-89
2023/12/17 04:52:16;;;;;;;6.73;4.17;;;;;;;;;;6286137;22;20380;-88
2023/12/17 04:54:42;;;;;;;16.30;5.40;;;;;;;;;;6312186;22;20368;-89
2023/12/17 04:57:08;;;;;;;7.10;4.67;;;;;;;;;;6288537;22;20416;-89
2023/12/17 04:59:34;;;;;;;4.83;4.30;;;;;;;;;;6285983;22;20880;-92
2023/12/17 05:02:00;;;;;;;8.10;4.00;;;;;;;;;;6290774;22;20396;-88
2023/12/17 05:04:26;;;;;;;5.17;4.40;;;;;;;;;;6288930;22;20372;-89
2023/12/17 05:06:52;;;;;;;7.27;4.70;;;;;;;;;;6287827;22;20442;-91
2023/12/17 05:09:18;;;;;;;4.90;4.00;;;;;;;;;;6291176;22;20384;-90
2023/12/17 05:11:47;;;;;;;6.23;5.63;;;;;;;;;;6290591;22;20372;-90
2023/12/17 05:14:13;;;;;;;4.77;4.27;;;;;;;;;;6285146;22;20384;-90
2023/12/17 05:16:41;;;;;;;14.70;4.00;;;;;;;;;;6285689;22;20416;-91
2023/12/17 05:19:07;;;;;;;6.77;5.00;;;;;;;;;;6284226;22;20384;-90
2023/12/17 05:21:33;;;;;;;6.80;4.23;;;;;;;;;;6286488;22;20460;-90
2023/12/17 05:23:59;;;;;;;6.33;4.73;;;;;;;;;;6284746;22;20386;-91
2023/12/17 05:26:25;;;;;;;5.57;5.00;;;;;;;;;;6286243;22;20400;-88
2023/12/17 05:28:51;;;;;;;6.13;4.67;;;;;;;;;;6283789;22;20384;-89
2023/12/17 05:31:17;;;;;;;5.53;4.83;;;;;;;;;;6285362;22;20400;-89
2023/12/17 05:33:46;;;;;;;7.23;4.93;;;;;;;;;;6308320;22;20349;-89
2023/12/17 05:36:12;;;;;;;6.27;3.87;;;;;;;;;;6287919;22;20431;-88
2023/12/17 05:38:38;;;;;;;9.17;5.43;;;;;;;;;;6281653;22;20369;-88
2023/12/17 05:41:05;;;;;;;5.30;4.30;;;;;;;;;;6282486;22;20380;-89
2023/12/17 05:43:30;;;;;;;8.90;4.60;;;;;;;;;;6281579;22;20380;-89
2023/12/17 05:45:56;;;;;;;4.80;4.40;;;;;;;;;;6309699;22;20398;-90
2023/12/17 05:48:22;;;;;;;6.07;4.53;;;;;;;;;;6284373;22;21063;-88
2023/12/17 05:50:49;;;;;;;8.27;4.67;;;;;;;;;;6285234;22;20441;-89
2023/12/17 05:53:14;;;;;;;7.03;4.20;;;;;;;;;;6284784;22;20936;-89
2023/12/17 05:55:41;;;;;;;4.73;3.57;;;;;;;;;;6286119;22;20412;-88
2023/12/17 05:58:07;;;;;;;6.37;3.73;;;;;;;;;;6285583;22;20614;-89
2023/12/17 06:00:33;;;;;;;4.83;4.23;;;;;;;;;;6285126;22;20376;-89
2023/12/17 06:02:59;;;;;;;6.50;4.10;;;;;;;;;;6285109;22;20369;-90
2023/12/17 06:05:25;;;;;;;5.00;4.60;;;;;;;;;;6287875;22;20404;-90
2023/12/17 06:07:50;;;;;;;8.37;4.80;;;;;;;;;;6283677;22;20384;-88
2023/12/17 06:10:16;;;;;;;6.50;4.97;;;;;;;;;;6309507;22;20372;-88
2023/12/17 06:12:42;;;;;;;6.47;5.00;;;;;;;;;;6283759;22;20522;-90
2023/12/17 06:15:08;;;;;;;4.03;3.63;;;;;;;;;;6285643;22;20368;-90
2023/12/17 06:17:34;;;;;;;6.23;4.87;;;;;;;;;;6283988;22;20379;-90
2023/12/17 06:20:02;;;;;;;5.47;4.33;;;;;;;;;;6286002;22;20373;-88
2023/12/17 06:22:28;;;;;;;8.03;4.43;;;;;;;;;;6283133;22;20412;-91
2023/12/17 06:24:54;;;;;;;6.87;4.80;;;;;;;;;;6285479;22;20451;-90
2023/12/17 06:27:20;;;;;;;11.73;6.43;;;;;;;;;;6310303;22;21164;-90
2023/12/17 06:29:48;;;;;;;5.97;5.00;;;;;;;;;;6285290;22;20425;-89
2023/12/17 06:32:15;;;;;;;5.60;4.50;;;;;;;;;;6310183;22;20879;-91
2023/12/17 06:34:42;;;;;;;4.50;3.53;;;;;;;;;;6283812;22;20855;-90
2023/12/17 06:37:08;;;;;;;5.50;4.23;;;;;;;;;;6315034;22;20412;-90
2023/12/17 06:39:34;;;;;;;6.73;4.90;;;;;;;;;;6283846;22;20369;-90
2023/12/17 06:42:00;;;;;;;7.83;5.63;;;;;;;;;;6287337;22;20407;-91
2023/12/17 06:44:26;;;;;;;7.63;4.40;;;;;;;;;;6282191;22;20380;-89
2023/12/17 06:46:52;;;;;;;5.63;4.10;;;;;;;;;;6311024;22;20385;-87
2023/12/17 06:49:18;;;;;;;12.13;5.47;;;;;;;;;;6282609;22;20404;-90
2023/12/17 06:51:44;;;;;;;6.87;5.73;;;;;;;;;;6286869;22;20383;-91
2023/12/17 06:54:10;;;;;;;8.80;5.27;;;;;;;;;;6308067;22;20384;-91
2023/12/17 06:56:36;;;;;;;6.87;4.50;;;;;;;;;;6285036;22;20423;-92
2023/12/17 06:59:02;;;;;;;7.10;5.93;;;;;;;;;;6309427;22;20432;-91
2023/12/17 07:01:29;;;;;;;8.27;5.10;;;;;;;;;;6285049;22;20429;-90
2023/12/17 07:03:55;;;;;;;8.27;5.90;;;;;;;;;;6288297;22;20376;-92
2023/12/17 07:06:21;;;;;;;5.50;4.10;;;;;;;;;;6284412;22;20495;-91
2023/12/17 07:08:48;;;;;;;6.33;4.90;;;;;;;;;;6340343;22;20840;-92
2023/12/17 07:11:14;;;;;;;7.20;5.03;;;;;;;;;;6308752;22;20410;-90
2023/12/17 07:13:42;;;;;;;7.20;6.03;;;;;;;;;;6286176;22;20380;-89
2023/12/17 07:16:10;;;;;;;7.90;5.43;;;;;;;;;;6284891;22;20437;-91
2023/12/17 07:18:36;;;;;;;8.00;5.20;;;;;;;;;;6284301;22;20418;-91
2023/12/17 07:21:02;;;;;;;6.00;5.43;;;;;;;;;;6285949;22;20430;-90
2023/12/17 07:23:28;;;;;;;6.73;4.60;;;;;;;;;;6290080;22;20385;-92
2023/12/17 07:25:54;;;;;;;14.73;4.00;;;;;;;;;;6312294;22;20394;-89
2023/12/17 07:28:20;;;;;;;6.67;5.40;;;;;;;;;;6286855;22;20368;-92
2023/12/17 07:30:46;;;;;;;6.50;5.33;;;;;;;;;;6285707;22;20395;-90
2023/12/17 07:33:12;;;;;;;7.77;5.07;;;;;;;;;;6288335;22;20364;-89
2023/12/17 07:35:38;;;;;;;5.83;5.10;;;;;;;;;;6288758;22;20455;-93
2023/12/17 07:38:04;;;;;;;5.93;4.57;;;;;;;;;;6292699;22;20414;-92
2023/12/17 07:40:30;;;;;;;8.83;6.23;;;;;;;;;;6313241;22;21077;-93
2023/12/17 07:42:56;;;;;;;9.30;6.23;;;;;;;;;;6255713;22;20373;-91
2023/12/17 07:45:22;;;;;;;8.27;5.53;;;;;;;;;;6230819;22;20384;-89
2023/12/17 07:47:49;;;;;;;8.47;5.37;;;;;;;;;;6230755;22;20372;-92
2023/12/17 07:50:15;;;;;;;7.70;5.60;;;;;;;;;;6229982;22;20491;-90
2023/12/17 07:52:41;;;;;;;8.13;5.60;;;;;;;;;;6230136;22;20373;-92
2023/12/17 07:55:08;;;;;;;8.70;5.17;;;;;;;;;;6259008;22;20373;-89
2023/12/17 07:57:34;;;;;;;5.90;5.10;;;;;;;;;;6229914;22;20381;-88
2023/12/17 08:00:00;;;;;;;8.20;5.67;;;;;;;;;;6227097;22;20377;-90
2023/12/17 08:02:26;;;;;;;8.77;6.43;;;;;;;;;;6229619;22;20499;-91
2023/12/17 08:04:53;;;;;;;8.00;6.33;;;;;;;;;;6232229;22;20393;-90
2023/12/17 08:07:20;;;;;;;6.03;4.70;;;;;;;;;;6254275;22;20408;-92
2023/12/17 08:09:46;;;;;;;15.77;6.67;;;;;;;;;;6233569;22;20884;-91
2023/12/17 08:12:12;;;;;;;8.70;6.03;;;;;;;;;;6229902;22;20382;-91
2023/12/17 08:14:38;;;;;;;8.13;5.60;;;;;;;;;;6302678;22;20375;-90
2023/12/17 08:17:04;;;;;;;7.17;5.50;;;;;;;;;;6287105;22;20481;-92
2023/12/17 08:19:30;;;;;;;8.00;5.10;;;;;;;;;;6288091;22;20812;-91
2023/12/17 08:21:56;;;;;;;8.50;6.53;;;;;;;;;;6312179;22;20361;-92
2023/12/17 08:24:22;;;;;;;9.40;5.50;;;;;;;;;;6287240;22;20372;-92
2023/12/17 08:26:48;;;;;;;6.37;5.60;;;;;;;;;;6288102;22;20377;-92
2023/12/17 08:29:14;;;;;;;5.90;5.30;;;;;;;;;;6288749;22;20388;-91
2023/12/17 08:31:44;;;;;;;10.03;7.70;;;;;;;;;;6286982;22;20392;-91
2023/12/17 08:34:10;;;;;;;8.63;5.93;;;;;;;;;;6288714;22;20434;-88
2023/12/17 08:36:36;;;;;;;8.30;5.77;;;;;;;;;;6287215;22;20700;-91
2023/12/17 08:39:04;;;;;;;8.70;6.00;;;;;;;;;;6313704;22;20372;-91
2023/12/17 08:41:33;;;;;;;8.43;5.50;;;;;;;;;;6293582;22;20360;-91
2023/12/17 08:44:01;;;;;;;6.63;5.53;;;;;;;;;;6288777;22;20353;-90
2023/12/17 08:46:26;;;;;;;9.63;5.70;;;;;;;;;;6289688;22;20368;-88
2023/12/17 08:48:55;;;;;;;7.33;5.03;;;;;;;;;;6285984;22;20383;-91
2023/12/17 08:51:21;;;;;;;6.63;5.00;;;;;;;;;;6338329;22;20442;-90
2023/12/17 08:53:48;;;;;;;6.57;5.93;;;;;;;;;;6285445;22;20387;-91
2023/12/17 08:56:14;;;;;;;6.77;5.33;;;;;;;;;;6288315;22;20416;-92
2023/12/17 08:58:40;;;;;;;9.30;6.77;;;;;;;;;;6285084;22;20479;-91
2023/12/17 09:01:06;;;;;;;8.10;6.20;;;;;;;;;;6311962;22;20368;-91
2023/12/17 09:03:32;;;;;;;7.60;5.73;;;;;;;;;;6287315;22;20388;-90
2023/12/17 09:05:59;;;;;;;11.23;6.33;;;;;;;;;;6340597;22;20394;-90
2023/12/17 09:08:25;;;;;;;10.50;5.50;;;;;;;;;;6285157;22;20377;-91
2023/12/17 09:10:51;;;;;;;8.47;6.87;;;;;;;;;;6311779;22;20755;-90
2023/12/17 09:13:17;;;;;;;7.03;5.57;;;;;;;;;;6286245;22;20467;-92
2023/12/17 09:15:43;;;;;;;7.53;5.87;;;;;;;;;;6285827;22;20423;-89
2023/12/17 09:18:09;;;;;;;11.20;6.57;;;;;;;;;;6284791;22;20435;-92
2023/12/17 09:20:35;;;;;;;8.43;6.33;;;;;;;;;;6287063;22;20372;-91
2023/12/17 09:23:02;;;;;;;7.40;6.50;;;;;;;;;;6285558;22;20372;-91
2023/12/17 09:25:28;;;;;;;10.30;6.23;;;;;;;;;;6287685;22;20380;-90
2023/12/17 09:27:54;;;;;;;6.97;5.97;;;;;;;;;;6287647;22;20398;-93
2023/12/17 09:30:20;;;;;;;11.00;7.17;;;;;;;;;;6310877;22;20430;-87
2023/12/17 09:32:46;;;;;;;9.40;6.00;;;;;;;;;;6309893;22;20384;-88
2023/12/17 09:35:13;;;;;;;7.13;6.07;;;;;;;;;;6309417;22;20457;-91
2023/12/17 09:37:39;;;;;;;6.90;5.50;;;;;;;;;;6286682;22;20392;-91
2023/12/17 09:40:06;;;;;;;10.03;9.07;;;;;;;;;;6285795;22;20388;-89
2023/12/17 09:42:32;;;;;;;8.13;6.10;;;;;;;;;;6327488;22;20392;-91
2023/12/17 09:44:59;;;;;;;6.33;5.63;;;;;;;;;;6302026;22;20380;-90
2023/12/17 09:47:25;;;;;;;9.30;6.57;;;;;;;;;;6303269;22;20492;-87
2023/12/17 09:49:51;;;;;;;8.93;7.40;;;;;;;;;;6301151;22;20842;-89
2023/12/17 09:52:18;;;;;;;11.37;6.70;;;;;;;;;;6299870;22;20392;-91
2023/12/17 09:54:47;;;;;;;7.73;5.40;;;;;;;;;;6292300;22;20448;-87
2023/12/17 09:57:13;;;;;;;7.23;6.00;;;;;;;;;;6293737;22;20416;-89
2023/12/17 09:59:40;;;;;;;8.20;7.13;;;;;;;;;;6295075;22;20373;-88
2023/12/17 10:02:08;;;;;;;9.33;5.40;;;;;;;;;;6298217;22;20384;-91
2023/12/17 10:04:34;;;;;;;9.20;6.40;;;;;;;;;;6296685;22;20391;-88
2023/12/17 10:07:03;;;;;;;9.03;6.37;;;;;;;;;;6326112;22;20384;-90
2023/12/17 10:09:31;;;;;;;5.73;5.23;;;;;;;;;;6296645;22;20384;-88
2023/12/17 10:11:57;;;;;;;6.10;5.07;;;;;;;;;;6298986;22;20388;-91
2023/12/17 10:14:23;;;;;;;8.10;6.93;;;;;;;;;;6297991;22;20387;-89
2023/12/17 10:16:50;;;;;;;11.40;6.80;;;;;;;;;;6325945;22;20396;-90
2023/12/17 10:19:17;;;;;;;11.37;7.00;;;;;;;;;;6298327;22;20395;-88
2023/12/17 10:21:43;;;;;;;6.10;5.40;;;;;;;;;;6298926;22;20406;-90
2023/12/17 10:24:09;;;;;;;9.23;7.27;;;;;;;;;;6323500;22;20365;-88
2023/12/17 10:26:48;;;;;;;6.53;5.73;;;;;;;;;;6298928;22;20380;-89
2023/12/17 10:29:15;;;;;;;11.13;7.07;;;;;;;;;;6326030;22;20359;-87
2023/12/17 10:31:41;;;;;;;13.00;6.53;;;;;;;;;;6300455;22;20762;-89
2023/12/17 10:34:15;;;;;;;7.20;6.50;;;;;;;;;;6299573;22;20403;-88
2023/12/17 10:36:41;;;;;;;9.57;5.90;;;;;;;;;;6301507;22;20416;-88
2023/12/17 10:39:07;;;;;;;6.33;5.70;;;;;;;;;;6296712;22;20392;-89
2023/12/17 10:41:33;;;;;;;8.07;7.27;;;;;;;;;;6322191;22;20379;-89
2023/12/17 10:44:01;;;;;;;7.87;7.13;;;;;;;;;;6296283;22;20414;-87
2023/12/17 10:46:27;;;;;;;8.57;6.40;;;;;;;;;;6297300;22;20454;-90
2023/12/17 10:48:54;;;;;;;5.87;5.30;;;;;;;;;;6295226;22;20381;-87
2023/12/17 10:51:20;;;;;;;10.70;7.20;;;;;;;;;;6297584;22;20409;-88
2023/12/17 10:53:46;;;;;;;11.60;6.53;;;;;;;;;;6290783;22;20719;-88
2023/12/17 10:56:13;;;;;;;7.30;6.30;;;;;;;;;;6298813;22;20458;-89
2023/12/17 10:58:39;;;;;;;10.60;6.90;;;;;;;;;;6297697;22;20443;-91
2023/12/17 11:01:05;;;;;;;9.30;5.50;;;;;;;;;;6299630;22;20372;-89
2023/12/17 11:03:31;;;;;;;9.53;6.47;;;;;;;;;;6299079;22;20460;-88
2023/12/17 11:05:58;;;;;;;8.73;6.43;;;;;;;;;;6323019;22;20431;-91
2023/12/17 11:08:25;;;;;;;5.87;5.27;;;;;;;;;;6319427;22;20377;-91
2023/12/17 11:10:51;;;;;;;7.93;5.50;;;;;;;;;;6291356;22;20376;-91
2023/12/17 11:13:21;;;;;;;6.60;5.57;;;;;;;;;;6288700;22;20372;-89
2023/12/17 11:15:47;;;;;;;7.30;6.53;;;;;;;;;;6341579;22;20459;-90
2023/12/17 11:18:14;;;;;;;6.57;4.90;;;;;;;;;;6289004;22;20389;-91
2023/12/17 11:20:45;;;;;;;7.10;5.40;;;;;;;;;;6290993;22;20379;-91
2023/12/17 11:23:11;;;;;;;6.83;5.07;;;;;;;;;;6315152;22;20364;-88
2023/12/17 11:25:37;;;;;;;7.67;5.47;;;;;;;;;;6289674;22;20829;-93
2023/12/17 11:28:03;;;;;;;5.33;4.27;;;;;;;;;;6289689;22;20371;-89
2023/12/17 11:30:37;;;;;;;7.00;4.70;;;;;;;;;;6286119;22;20452;-91
2023/12/17 11:33:04;;;;;;;10.23;5.20;;;;;;;;;;6290192;22;20394;-88
2023/12/17 11:35:32;;;;;;;6.20;5.33;;;;;;;;;;6286699;22;20376;-90
2023/12/17 11:37:58;;;;;;;6.60;5.10;;;;;;;;;;6286368;22;20786;-88
2023/12/17 11:40:28;;;;;;;7.37;5.33;;;;;;;;;;6285105;22;20403;-91
2023/12/17 11:43:01;;;;;;;4.57;4.17;;;;;;;;;;6287129;22;20410;-89
2023/12/17 11:45:47;;;;;;;6.60;5.67;;;;;;;;;;6310294;22;20399;-90
2023/12/17 11:48:14;;;;;;;5.43;4.53;;;;;;;;;;6288556;22;20369;-91
2023/12/17 11:50:49;;;;;;;5.30;4.80;;;;;;;;;;6284291;22;20990;-90
2023/12/17 11:53:16;;;;;;;5.63;4.30;;;;;;;;;;6339274;22;20495;-90
2023/12/17 11:55:49;;;;;;;5.03;4.57;;;;;;;;;;6283267;22;20824;-91
2023/12/17 11:58:16;;;;;;;5.20;4.77;;;;;;;;;;6341196;22;20391;-88
2023/12/17 12:00:50;;;;;;;7.80;4.57;;;;;;;;;;6287085;22;20388;-90
2023/12/17 12:03:19;;;;;;;6.50;5.80;;;;;;;;;;6290880;22;20464;-92
2023/12/17 12:05:45;;;;;;;8.33;6.17;;;;;;;;;;6285099;22;21102;-86
2023/12/17 12:08:11;;;;;;;6.83;6.10;;;;;;;;;;6287581;22;20381;-88
2023/12/17 12:10:37;;;;;;;7.80;7.07;;;;;;;;;;6284188;22;20384;-90
2023/12/17 12:13:03;;;;;;;10.20;6.60;;;;;;;;;;6289288;22;20376;-87
2023/12/17 12:15:29;;;;;;;11.73;8.20;;;;;;;;;;6289529;22;20403;-90
2023/12/17 12:17:55;;;;;;;8.67;6.60;;;;;;;;;;6317038;22;20813;-91
2023/12/17 12:20:35;;;;;;;9.03;6.60;;;;;;;;;;6289068;22;20352;-91
2023/12/17 12:23:01;;;;;;;8.23;6.70;;;;;;;;;;6291479;22;20915;-90
2023/12/17 12:25:27;;;;;;;11.37;7.83;;;;;;;;;;6289920;22;20575;-92
2023/12/17 12:27:53;;;;;;;9.37;6.20;;;;;;;;;;6293518;22;20368;-91
2023/12/17 12:30:29;;;;;;;8.47;7.00;;;;;;;;;;6311726;22;20348;-87
2023/12/17 12:32:55;;;;;;;7.43;6.57;;;;;;;;;;6291385;22;20388;-91
2023/12/17 12:35:23;;;;;;;10.40;6.50;;;;;;;;;;6287840;22;20372;-90
2023/12/17 12:37:49;;;;;;;9.00;7.13;;;;;;;;;;6289880;22;20387;-88
2023/12/17 12:40:15;;;;;;;6.60;5.83;;;;;;;;;;6284799;22;20384;-87
2023/12/17 12:42:41;;;;;;;8.30;6.33;;;;;;;;;;6285729;22;20380;-92
2023/12/17 12:45:10;;;;;;;7.57;6.80;;;;;;;;;;6310745;22;20455;-91
2023/12/17 12:47:36;;;;;;;8.63;7.33;;;;;;;;;;6290138;22;20371;-91
2023/12/17 12:50:02;;;;;;;10.10;6.80;;;;;;;;;;6282946;22;20373;-87
2023/12/17 12:52:28;;;;;;;6.77;6.07;;;;;;;;;;6284590;22;20376;-88
2023/12/17 12:54:54;;;;;;;7.80;6.73;;;;;;;;;;6286634;22;21122;-93
2023/12/17 12:57:22;;;;;;;7.90;7.10;;;;;;;;;;6290573;22;20416;-91
2023/12/17 12:59:48;;;;;;;6.77;5.90;;;;;;;;;;6284925;22;20387;-94
2023/12/17 13:02:15;;;;;;;10.50;7.30;;;;;;;;;;6281634;22;20388;-90
2023/12/17 13:04:41;;;;;;;9.00;6.90;;;;;;;;;;6283383;22;20399;-92
2023/12/17 13:07:07;;;;;;;8.27;7.40;;;;;;;;;;6284808;22;20652;-91
2023/12/17 13:09:35;;;;;;;8.43;7.53;;;;;;;;;;6283750;22;20443;-90
2023/12/17 13:12:01;;;;;;;8.57;7.57;;;;;;;;;;6283254;22;20731;-90
2023/12/17 13:14:27;;;;;;;8.47;7.27;;;;;;;;;;6282894;22;20383;-90
2023/12/17 13:16:53;;;;;;;7.93;7.20;;;;;;;;;;6285972;22;20415;-87
2023/12/17 13:19:19;;;;;;;8.07;7.27;;;;;;;;;;6285876;22;20731;-91
2023/12/17 13:21:47;;;;;;;14.43;7.50;;;;;;;;;;6285075;22;20377;-89
2023/12/17 13:24:13;;;;;;;9.30;7.50;;;;;;;;;;6284926;22;20400;-87
2023/12/17 13:26:39;;;;;;;8.97;8.07;;;;;;;;;;6285667;22;20415;-88
2023/12/17 13:29:05;;;;;;;8.93;8.03;;;;;;;;;;6311162;22;20397;-89
2023/12/17 13:31:35;;;;;;;8.73;7.60;;;;;;;;;;6286859;22;20416;-90
2023/12/17 13:34:03;;;;;;;8.03;7.27;;;;;;;;;;6292362;22;20465;-92
2023/12/17 13:36:30;;;;;;;7.47;6.77;;;;;;;;;;6287757;22;20424;-92
2023/12/17 13:38:58;;;;;;;9.87;7.73;;;;;;;;;;6288155;22;20418;-92
2023/12/17 13:41:24;;;;;;;8.90;8.00;;;;;;;;;;6283493;22;20888;-92
2023/12/17 13:43:52;;;;;;;8.70;7.80;;;;;;;;;;6286368;22;20384;-91
2023/12/17 13:46:20;;;;;;;8.97;7.80;;;;;;;;;;6283819;22;20849;-87
2023/12/17 13:48:48;;;;;;;9.77;8.77;;;;;;;;;;6284612;22;20365;-90
2023/12/17 13:51:15;;;;;;;11.13;7.80;;;;;;;;;;6307701;22;20356;-91
2023/12/17 13:53:42;;;;;;;9.37;7.17;;;;;;;;;;6281717;22;20454;-89
2023/12/17 13:56:10;;;;;;;11.57;8.20;;;;;;;;;;6281538;22;20455;-88
2023/12/17 13:58:36;;;;;;;9.70;7.80;;;;;;;;;;6283035;22;20884;-89
2023/12/17 14:01:02;;;;;;;12.90;8.03;;;;;;;;;;6281768;22;20765;-88
2023/12/17 14:03:28;;;;;;;11.60;8.00;;;;;;;;;;6282271;22;20408;-92
2023/12/17 14:05:55;;;;;;;10.20;8.00;;;;;;;;;;6249140;22;20389;-91
2023/12/17 14:08:21;;;;;;;7.50;6.63;;;;;;;;;;6225658;22;20415;-89
2023/12/17 14:10:47;;;;;;;9.97;8.40;;;;;;;;;;6225286;22;20411;-92
2023/12/17 14:13:13;;;;;;;14.70;9.47;;;;;;;;;;6227150;22;20869;-92
2023/12/17 14:15:39;;;;;;;8.43;6.90;;;;;;;;;;6224419;22;20449;-86
2023/12/17 14:18:05;;;;;;;11.40;8.53;;;;;;;;;;6225976;22;20574;-88
2023/12/17 14:20:32;;;;;;;9.90;8.80;;;;;;;;;;6248802;22;20376;-90
2023/12/17 14:22:58;;;;;;;8.80;8.00;;;;;;;;;;6225418;22;20408;-90
2023/12/17 14:25:24;;;;;;;8.90;8.10;;;;;;;;;;6251453;22;20380;-91
2023/12/17 14:27:50;;;;;;;10.13;7.80;;;;;;;;;;6226122;22;20484;-92
2023/12/17 14:30:16;;;;;;;7.90;7.10;;;;;;;;;;6228108;22;20939;-90
2023/12/17 14:32:52;;;;;;;7.40;6.37;;;;;;;;;;6254468;22;20389;-89
2023/12/17 14:35:18;;;;;;;8.00;6.80;;;;;;;;;;6254750;22;20369;-91
2023/12/17 14:37:50;;;;;;;11.80;7.40;;;;;;;;;;6274292;22;20388;-92